NSZ25PJ EBBR-EKCH
Flight info
| Callsign | NSZ25PJ |
|---|---|
| Flight time | 1h 11m |
| Altitude | 34000 |
| Route | NIK L191 VICOT N873 SPY/N0453F350 DCT DOSUR P729 TUDLO |
| Aircraft | B38M/M-SDE1FGHILORVWXY/HB1 |
Departure
| Time | 2026-04-25 19:44 |
|---|---|
| Airport | Brussels Airport (EBBR) |
Arrival
| Time | 2026-04-25 20:55 |
|---|---|
| Airport | Copenhagen Kastrup Airport (EKCH) |
| Time | Latitude | Longitude | Altitude | Speed | Heading |
|---|---|---|---|---|---|
| 2026-04-25 19:04 | 50.90241 | 4.48468 | 136 ft | 0 kts | 336° |
| 2026-04-25 19:27 | 50.90237 | 4.48471 | 132 ft | 2 kts | 335° |
| 2026-04-25 19:27 | 50.90230 | 4.48476 | 132 ft | 2 kts | 336° |
| 2026-04-25 19:27 | 50.90210 | 4.48489 | 133 ft | 2 kts | 338° |
| 2026-04-25 19:27 | 50.90195 | 4.48498 | 134 ft | 2 kts | 342° |
| 2026-04-25 19:28 | 50.90178 | 4.48504 | 135 ft | 2 kts | 358° |
| 2026-04-25 19:28 | 50.90164 | 4.48495 | 136 ft | 2 kts | 58° |
| 2026-04-25 19:28 | 50.90161 | 4.48487 | 136 ft | 0 kts | 64° |
| 2026-04-25 19:31 | 50.90163 | 4.48494 | 136 ft | 2 kts | 65° |
| 2026-04-25 19:32 | 50.90183 | 4.48563 | 136 ft | 13 kts | 65° |
| 2026-04-25 19:32 | 50.90232 | 4.48734 | 137 ft | 19 kts | 64° |
| 2026-04-25 19:32 | 50.90280 | 4.48894 | 137 ft | 14 kts | 65° |
| 2026-04-25 19:32 | 50.90308 | 4.48992 | 138 ft | 15 kts | 66° |
| 2026-04-25 19:33 | 50.90375 | 4.49213 | 136 ft | 18 kts | 65° |
| 2026-04-25 19:33 | 50.90416 | 4.49372 | 135 ft | 16 kts | 72° |
| 2026-04-25 19:33 | 50.90448 | 4.49479 | 133 ft | 0 kts | 65° |
| 2026-04-25 19:33 | 50.90460 | 4.49489 | 133 ft | 8 kts | 17° |
| 2026-04-25 19:34 | 50.90550 | 4.49513 | 129 ft | 16 kts | 13° |
| 2026-04-25 19:34 | 50.90648 | 4.49552 | 127 ft | 6 kts | 14° |
| 2026-04-25 19:34 | 50.90653 | 4.49554 | 127 ft | 2 kts | 14° |
| 2026-04-25 19:34 | 50.90665 | 4.49559 | 126 ft | 0 kts | 14° |
| 2026-04-25 19:35 | 50.90674 | 4.49562 | 121 ft | 4 kts | 14° |
| 2026-04-25 19:35 | 50.90719 | 4.49581 | 123 ft | 9 kts | 15° |
| 2026-04-25 19:35 | 50.90795 | 4.49624 | 117 ft | 13 kts | 38° |
| 2026-04-25 19:35 | 50.90845 | 4.49740 | 118 ft | 9 kts | 39° |
| 2026-04-25 19:36 | 50.90899 | 4.49770 | 112 ft | 10 kts | 17° |
| 2026-04-25 19:36 | 50.90948 | 4.49818 | 113 ft | 2 kts | 40° |
| 2026-04-25 19:36 | 50.90966 | 4.49841 | 111 ft | 5 kts | 38° |
| 2026-04-25 19:36 | 50.90979 | 4.49858 | 112 ft | 0 kts | 38° |
| 2026-04-25 19:38 | 50.90985 | 4.49866 | 109 ft | 0 kts | 38° |
| 2026-04-25 19:38 | 50.90991 | 4.49873 | 110 ft | 1 kts | 37° |
| 2026-04-25 19:39 | 50.90998 | 4.49881 | 111 ft | 3 kts | 32° |
| 2026-04-25 19:39 | 50.91026 | 4.49902 | 109 ft | 7 kts | 24° |
| 2026-04-25 19:39 | 50.91034 | 4.49907 | 109 ft | 2 kts | 24° |
| 2026-04-25 19:39 | 50.91043 | 4.49914 | 108 ft | 0 kts | 24° |
| 2026-04-25 19:42 | 50.91072 | 4.49933 | 107 ft | 8 kts | 20° |
| 2026-04-25 19:42 | 50.91118 | 4.49934 | 107 ft | 5 kts | 332° |
| 2026-04-25 19:43 | 50.91134 | 4.49890 | 107 ft | 5 kts | 271° |
| 2026-04-25 19:43 | 50.91125 | 4.49836 | 108 ft | 5 kts | 248° |
| 2026-04-25 19:43 | 50.91095 | 4.49734 | 110 ft | 29 kts | 245° |
| 2026-04-25 19:43 | 50.90911 | 4.49100 | 114 ft | 97 kts | 246° |
| 2026-04-25 19:44 | 50.90546 | 4.47830 | 121 ft | 155 kts | 246° |
| 2026-04-25 19:44 | 50.90060 | 4.46096 | 460 ft | 180 kts | 249° |
| 2026-04-25 19:44 | 50.89626 | 4.44187 | 1193 ft | 188 kts | 259° |
| 2026-04-25 19:44 | 50.89509 | 4.42116 | 1967 ft | 191 kts | 278° |
| 2026-04-25 19:45 | 50.89936 | 4.40124 | 2641 ft | 198 kts | 310° |
| 2026-04-25 19:45 | 50.91078 | 4.38826 | 3275 ft | 210 kts | 339° |
| 2026-04-25 19:45 | 50.92476 | 4.37961 | 4067 ft | 221 kts | 339° |
| 2026-04-25 19:45 | 50.93924 | 4.36948 | 4788 ft | 237 kts | 337° |
| 2026-04-25 19:46 | 50.95480 | 4.35837 | 5534 ft | 249 kts | 337° |
| 2026-04-25 19:46 | 50.97021 | 4.34587 | 6577 ft | 250 kts | 332° |
| 2026-04-25 19:46 | 50.98620 | 4.33194 | 7003 ft | 280 kts | 332° |
| 2026-04-25 19:46 | 51.00396 | 4.31668 | 7050 ft | 291 kts | 332° |
| 2026-04-25 19:47 | 51.02133 | 4.30212 | 7204 ft | 273 kts | 333° |
| 2026-04-25 19:47 | 51.03783 | 4.28851 | 7193 ft | 265 kts | 334° |
| 2026-04-25 19:47 | 51.05418 | 4.27514 | 7764 ft | 261 kts | 333° |
| 2026-04-25 19:47 | 51.07041 | 4.26175 | 8714 ft | 267 kts | 333° |
| 2026-04-25 19:48 | 51.08725 | 4.24787 | 9541 ft | 275 kts | 333° |
| 2026-04-25 19:48 | 51.10419 | 4.23394 | 10599 ft | 272 kts | 333° |
| 2026-04-25 19:48 | 51.12069 | 4.22039 | 11771 ft | 260 kts | 332° |
| 2026-04-25 19:48 | 51.13758 | 4.20646 | 11648 ft | 288 kts | 332° |
| 2026-04-25 19:49 | 51.15587 | 4.19141 | 12146 ft | 302 kts | 332° |
| 2026-04-25 19:49 | 51.16195 | 4.18634 | 12351 ft | 306 kts | 330° |
| 2026-04-25 19:49 | 51.19198 | 4.15187 | 13145 ft | 334 kts | 323° |
| 2026-04-25 19:49 | 51.21107 | 4.12930 | 13691 ft | 347 kts | 323° |
| 2026-04-25 19:50 | 51.25316 | 4.09197 | 15208 ft | 355 kts | 349° |
| 2026-04-25 19:50 | 51.27792 | 4.09217 | 15948 ft | 362 kts | 8° |
| 2026-04-25 19:50 | 51.30228 | 4.10365 | 16640 ft | 369 kts | 19° |
| 2026-04-25 19:51 | 51.32659 | 4.11776 | 17335 ft | 374 kts | 18° |
| 2026-04-25 19:51 | 51.35126 | 4.13216 | 18033 ft | 378 kts | 19° |
| 2026-04-25 19:51 | 51.37609 | 4.14674 | 18704 ft | 383 kts | 19° |
| 2026-04-25 19:51 | 51.40120 | 4.16154 | 19302 ft | 387 kts | 19° |
| 2026-04-25 19:52 | 51.42643 | 4.17645 | 19882 ft | 391 kts | 18° |
| 2026-04-25 19:52 | 51.45223 | 4.19171 | 20481 ft | 395 kts | 18° |
| 2026-04-25 19:52 | 51.47815 | 4.20708 | 21059 ft | 399 kts | 18° |
| 2026-04-25 19:52 | 51.50437 | 4.22264 | 21621 ft | 404 kts | 18° |
| 2026-04-25 19:53 | 51.53076 | 4.23832 | 22192 ft | 408 kts | 18° |
| 2026-04-25 19:53 | 51.55756 | 4.25428 | 22744 ft | 412 kts | 18° |
| 2026-04-25 19:53 | 51.58465 | 4.27041 | 23298 ft | 417 kts | 17° |
| 2026-04-25 19:53 | 51.61188 | 4.28666 | 23839 ft | 421 kts | 17° |
| 2026-04-25 19:54 | 51.63950 | 4.30316 | 24289 ft | 424 kts | 17° |
| 2026-04-25 19:54 | 51.66717 | 4.31971 | 24782 ft | 426 kts | 18° |
| 2026-04-25 19:54 | 51.69513 | 4.33647 | 25176 ft | 430 kts | 18° |
| 2026-04-25 19:54 | 51.70422 | 4.34192 | 25190 ft | 430 kts | 18° |
| 2026-04-25 19:55 | 51.75111 | 4.37006 | 25694 ft | 428 kts | 18° |
| 2026-04-25 19:55 | 51.77871 | 4.38671 | 26143 ft | 431 kts | 18° |
| 2026-04-25 19:55 | 51.80742 | 4.40397 | 26497 ft | 436 kts | 18° |
| 2026-04-25 19:55 | 51.83588 | 4.42115 | 27012 ft | 437 kts | 18° |
| 2026-04-25 19:56 | 51.86411 | 4.43820 | 27424 ft | 441 kts | 18° |
| 2026-04-25 19:56 | 51.89327 | 4.45583 | 27867 ft | 443 kts | 18° |
| 2026-04-25 19:56 | 51.92225 | 4.47340 | 28294 ft | 445 kts | 18° |
| 2026-04-25 19:56 | 51.95090 | 4.49076 | 28703 ft | 448 kts | 19° |
| 2026-04-25 19:57 | 51.97975 | 4.50829 | 29113 ft | 450 kts | 19° |
| 2026-04-25 19:57 | 52.00899 | 4.52607 | 29522 ft | 452 kts | 19° |
| 2026-04-25 19:57 | 52.03890 | 4.54429 | 29913 ft | 455 kts | 19° |
| 2026-04-25 19:57 | 52.06861 | 4.56241 | 30303 ft | 457 kts | 19° |
| 2026-04-25 19:58 | 52.09818 | 4.58048 | 30634 ft | 460 kts | 19° |
| 2026-04-25 19:58 | 52.12853 | 4.59904 | 30981 ft | 462 kts | 19° |
| 2026-04-25 19:58 | 52.15824 | 4.61726 | 31309 ft | 463 kts | 19° |
| 2026-04-25 19:58 | 52.18844 | 4.63580 | 31734 ft | 463 kts | 19° |
| 2026-04-25 19:59 | 52.21842 | 4.65425 | 32242 ft | 460 kts | 19° |
| 2026-04-25 19:59 | 52.24841 | 4.67272 | 32715 ft | 459 kts | 19° |
| 2026-04-25 19:59 | 52.27814 | 4.69106 | 33169 ft | 458 kts | 19° |
| 2026-04-25 19:59 | 52.30779 | 4.70938 | 33626 ft | 456 kts | 19° |
| 2026-04-25 20:00 | 52.33756 | 4.72780 | 34104 ft | 455 kts | 19° |
| 2026-04-25 20:00 | 52.34753 | 4.73397 | 34214 ft | 455 kts | 19° |
| 2026-04-25 20:00 | 52.39661 | 4.76437 | 34245 ft | 452 kts | 19° |
| 2026-04-25 20:01 | 52.48359 | 4.81842 | 34238 ft | 451 kts | 19° |
| 2026-04-25 20:01 | 52.54145 | 4.86068 | 34238 ft | 451 kts | 30° |
| 2026-04-25 20:02 | 52.59102 | 4.92422 | 34210 ft | 454 kts | 46° |
| 2026-04-25 20:02 | 52.61238 | 4.96253 | 34091 ft | 455 kts | 49° |
| 2026-04-25 20:02 | 52.63114 | 5.00399 | 34337 ft | 452 kts | 49° |
| 2026-04-25 20:03 | 52.65179 | 5.04321 | 34208 ft | 454 kts | 45° |
| 2026-04-25 20:03 | 52.67323 | 5.08165 | 34278 ft | 454 kts | 45° |
| 2026-04-25 20:03 | 52.71648 | 5.15767 | 34241 ft | 454 kts | 44° |
| 2026-04-25 20:04 | 52.75820 | 5.23624 | 34252 ft | 455 kts | 47° |
| 2026-04-25 20:04 | 52.79910 | 5.31587 | 34176 ft | 455 kts | 47° |
| 2026-04-25 20:05 | 52.81273 | 5.34231 | 33959 ft | 454 kts | 47° |
| 2026-04-25 20:05 | 52.83318 | 5.38203 | 33600 ft | 455 kts | 47° |
| 2026-04-25 20:05 | 52.85368 | 5.42190 | 33253 ft | 456 kts | 47° |
| 2026-04-25 20:05 | 52.88094 | 5.47501 | 33237 ft | 457 kts | 47° |
| 2026-04-25 20:06 | 52.91539 | 5.54231 | 33228 ft | 458 kts | 47° |
| 2026-04-25 20:06 | 52.95655 | 5.62291 | 33228 ft | 457 kts | 47° |
| 2026-04-25 20:07 | 52.99760 | 5.70357 | 33228 ft | 457 kts | 47° |
| 2026-04-25 20:07 | 53.03856 | 5.78432 | 33230 ft | 457 kts | 47° |
| 2026-04-25 20:08 | 53.07896 | 5.86421 | 33232 ft | 457 kts | 47° |
| 2026-04-25 20:08 | 53.11954 | 5.94473 | 33237 ft | 457 kts | 47° |
| 2026-04-25 20:09 | 53.16042 | 6.02609 | 33233 ft | 457 kts | 47° |
| 2026-04-25 20:09 | 53.20104 | 6.10723 | 33228 ft | 457 kts | 47° |
| 2026-04-25 20:10 | 53.24185 | 6.18900 | 33216 ft | 457 kts | 47° |
| 2026-04-25 20:10 | 53.28248 | 6.27066 | 33207 ft | 457 kts | 47° |
| 2026-04-25 20:11 | 53.32307 | 6.35252 | 33206 ft | 458 kts | 47° |
| 2026-04-25 20:11 | 53.36363 | 6.43459 | 33207 ft | 457 kts | 47° |
| 2026-04-25 20:12 | 53.40411 | 6.51676 | 33208 ft | 457 kts | 47° |
| 2026-04-25 20:12 | 53.43763 | 6.58501 | 33209 ft | 457 kts | 47° |
| 2026-04-25 20:13 | 53.48478 | 6.68133 | 33204 ft | 456 kts | 47° |
| 2026-04-25 20:13 | 53.52475 | 6.76328 | 33211 ft | 456 kts | 46° |
| 2026-04-25 20:14 | 53.56489 | 6.84586 | 33201 ft | 456 kts | 46° |
| 2026-04-25 20:14 | 53.60492 | 6.92847 | 33217 ft | 455 kts | 46° |
| 2026-04-25 20:15 | 53.64487 | 7.01120 | 33207 ft | 455 kts | 46° |
| 2026-04-25 20:15 | 53.68470 | 7.09395 | 33211 ft | 455 kts | 46° |
| 2026-04-25 20:16 | 53.72451 | 7.17693 | 33204 ft | 454 kts | 46° |
| 2026-04-25 20:16 | 53.76414 | 7.25982 | 33197 ft | 454 kts | 46° |
| 2026-04-25 20:17 | 53.80373 | 7.34289 | 33199 ft | 453 kts | 46° |
| 2026-04-25 20:17 | 53.84319 | 7.42596 | 33200 ft | 452 kts | 46° |
| 2026-04-25 20:18 | 53.88253 | 7.50907 | 33199 ft | 452 kts | 46° |
| 2026-04-25 20:18 | 53.92182 | 7.59235 | 33196 ft | 451 kts | 45° |
| 2026-04-25 20:19 | 53.96089 | 7.67544 | 33199 ft | 451 kts | 45° |
| 2026-04-25 20:19 | 54.00004 | 7.75898 | 33199 ft | 451 kts | 45° |
| 2026-04-25 20:20 | 54.03895 | 7.84227 | 33196 ft | 450 kts | 45° |
| 2026-04-25 20:20 | 54.07786 | 7.92586 | 33191 ft | 450 kts | 45° |
| 2026-04-25 20:21 | 54.11664 | 8.00945 | 33186 ft | 449 kts | 45° |
| 2026-04-25 20:21 | 54.15534 | 8.09314 | 33174 ft | 449 kts | 45° |
| 2026-04-25 20:22 | 54.18765 | 8.16325 | 33170 ft | 448 kts | 45° |
| 2026-04-25 20:22 | 54.23235 | 8.26054 | 33157 ft | 448 kts | 45° |
| 2026-04-25 20:23 | 54.27067 | 8.34426 | 33149 ft | 447 kts | 45° |
| 2026-04-25 20:23 | 54.30890 | 8.42806 | 33147 ft | 446 kts | 45° |
| 2026-04-25 20:24 | 54.34699 | 8.51184 | 33143 ft | 446 kts | 45° |
| 2026-04-25 20:24 | 54.38501 | 8.59575 | 33135 ft | 445 kts | 44° |
| 2026-04-25 20:25 | 54.42296 | 8.67977 | 33133 ft | 444 kts | 44° |
| 2026-04-25 20:25 | 54.46069 | 8.76360 | 33133 ft | 444 kts | 44° |
| 2026-04-25 20:26 | 54.49814 | 8.84710 | 33129 ft | 443 kts | 44° |
| 2026-04-25 20:26 | 54.53574 | 8.93121 | 33128 ft | 443 kts | 44° |
| 2026-04-25 20:27 | 54.57323 | 9.01536 | 33122 ft | 443 kts | 44° |
| 2026-04-25 20:27 | 54.61065 | 9.09963 | 33117 ft | 442 kts | 44° |
| 2026-04-25 20:28 | 54.64784 | 9.18369 | 33115 ft | 441 kts | 44° |
| 2026-04-25 20:28 | 54.68508 | 9.26812 | 33052 ft | 442 kts | 44° |
| 2026-04-25 20:29 | 54.72220 | 9.35259 | 33289 ft | 439 kts | 44° |
| 2026-04-25 20:29 | 54.74057 | 9.39451 | 33785 ft | 436 kts | 44° |
| 2026-04-25 20:29 | 54.75894 | 9.43651 | 32975 ft | 440 kts | 44° |
| 2026-04-25 20:30 | 54.77764 | 9.47914 | 31665 ft | 452 kts | 44° |
| 2026-04-25 20:30 | 54.79666 | 9.52266 | 30940 ft | 451 kts | 44° |
| 2026-04-25 20:30 | 54.81532 | 9.56577 | 30832 ft | 442 kts | 44° |
| 2026-04-25 20:30 | 54.83357 | 9.60798 | 30998 ft | 433 kts | 44° |
| 2026-04-25 20:31 | 54.85162 | 9.64952 | 30386 ft | 432 kts | 43° |
| 2026-04-25 20:31 | 54.86965 | 9.69102 | 29646 ft | 432 kts | 43° |
| 2026-04-25 20:31 | 54.88765 | 9.73263 | 29280 ft | 423 kts | 43° |
| 2026-04-25 20:31 | 54.90505 | 9.77295 | 29017 ft | 414 kts | 43° |
| 2026-04-25 20:32 | 54.92255 | 9.81344 | 28664 ft | 426 kts | 43° |
| 2026-04-25 20:32 | 54.94033 | 9.85479 | 29149 ft | 422 kts | 43° |
| 2026-04-25 20:32 | 54.95753 | 9.89498 | 29635 ft | 407 kts | 43° |
| 2026-04-25 20:32 | 54.97459 | 9.93470 | 28936 ft | 406 kts | 43° |
| 2026-04-25 20:33 | 54.99130 | 9.97371 | 28757 ft | 405 kts | 42° |
| 2026-04-25 20:33 | 55.00844 | 10.01365 | 28481 ft | 419 kts | 43° |
| 2026-04-25 20:33 | 55.02618 | 10.05515 | 28299 ft | 434 kts | 43° |
| 2026-04-25 20:33 | 55.03817 | 10.08331 | 28193 ft | 443 kts | 43° |
| 2026-04-25 20:34 | 55.06303 | 10.14181 | 27992 ft | 450 kts | 43° |
| 2026-04-25 20:34 | 55.08153 | 10.18544 | 27882 ft | 448 kts | 43° |
| 2026-04-25 20:34 | 55.10008 | 10.22923 | 27768 ft | 446 kts | 43° |
| 2026-04-25 20:34 | 55.11832 | 10.27239 | 27523 ft | 436 kts | 43° |
| 2026-04-25 20:35 | 55.13022 | 10.30055 | 27039 ft | 435 kts | 43° |
| 2026-04-25 20:35 | 55.15429 | 10.35757 | 25995 ft | 433 kts | 43° |
| 2026-04-25 20:35 | 55.17198 | 10.39960 | 25377 ft | 428 kts | 43° |
| 2026-04-25 20:35 | 55.18954 | 10.44140 | 24755 ft | 423 kts | 42° |
| 2026-04-25 20:36 | 55.20689 | 10.48272 | 24143 ft | 419 kts | 42° |
| 2026-04-25 20:36 | 55.22410 | 10.52382 | 23495 ft | 419 kts | 42° |
| 2026-04-25 20:36 | 55.24103 | 10.56432 | 22802 ft | 416 kts | 42° |
| 2026-04-25 20:36 | 55.25827 | 10.60563 | 22170 ft | 410 kts | 42° |
| 2026-04-25 20:37 | 55.27367 | 10.64799 | 21516 ft | 423 kts | 53° |
| 2026-04-25 20:37 | 55.28361 | 10.69727 | 20914 ft | 429 kts | 60° |
| 2026-04-25 20:37 | 55.29254 | 10.74694 | 20325 ft | 425 kts | 60° |
| 2026-04-25 20:37 | 55.30121 | 10.79632 | 19743 ft | 421 kts | 60° |
| 2026-04-25 20:38 | 55.30966 | 10.84529 | 19166 ft | 418 kts | 60° |
| 2026-04-25 20:38 | 55.31798 | 10.89394 | 18591 ft | 414 kts | 60° |
| 2026-04-25 20:38 | 55.32619 | 10.94223 | 17975 ft | 411 kts | 60° |
| 2026-04-25 20:38 | 55.33425 | 10.99040 | 17256 ft | 410 kts | 60° |
| 2026-04-25 20:39 | 55.34218 | 11.03805 | 16738 ft | 404 kts | 60° |
| 2026-04-25 20:39 | 55.34999 | 11.08498 | 16199 ft | 399 kts | 60° |
| 2026-04-25 20:39 | 55.35775 | 11.13178 | 15653 ft | 396 kts | 61° |
| 2026-04-25 20:39 | 55.36023 | 11.14676 | 15461 ft | 395 kts | 61° |
| 2026-04-25 20:40 | 55.37289 | 11.22339 | 14556 ft | 390 kts | 61° |
| 2026-04-25 20:40 | 55.38049 | 11.26956 | 14004 ft | 388 kts | 62° |
| 2026-04-25 20:40 | 55.38796 | 11.31504 | 13446 ft | 385 kts | 62° |
| 2026-04-25 20:40 | 55.39523 | 11.35954 | 13227 ft | 372 kts | 62° |
| 2026-04-25 20:41 | 55.40214 | 11.40188 | 13029 ft | 361 kts | 63° |
| 2026-04-25 20:41 | 55.40900 | 11.44398 | 12822 ft | 351 kts | 63° |
| 2026-04-25 20:41 | 55.41563 | 11.48477 | 12622 ft | 342 kts | 63° |
| 2026-04-25 20:41 | 55.42199 | 11.52407 | 12462 ft | 325 kts | 63° |
| 2026-04-25 20:42 | 55.42803 | 11.56148 | 12295 ft | 311 kts | 63° |
| 2026-04-25 20:42 | 55.43385 | 11.59745 | 12129 ft | 301 kts | 63° |
| 2026-04-25 20:42 | 55.44031 | 11.63194 | 11917 ft | 287 kts | 51° |
| 2026-04-25 20:42 | 55.45091 | 11.66066 | 11685 ft | 277 kts | 45° |
| 2026-04-25 20:43 | 55.46169 | 11.68868 | 11488 ft | 276 kts | 45° |
| 2026-04-25 20:43 | 55.47249 | 11.71673 | 11276 ft | 276 kts | 46° |
| 2026-04-25 20:43 | 55.48326 | 11.74461 | 11058 ft | 275 kts | 46° |
| 2026-04-25 20:43 | 55.49407 | 11.77258 | 10841 ft | 277 kts | 47° |
| 2026-04-25 20:44 | 55.50496 | 11.80077 | 10612 ft | 279 kts | 47° |
| 2026-04-25 20:44 | 55.51589 | 11.82909 | 10408 ft | 280 kts | 47° |
| 2026-04-25 20:44 | 55.52688 | 11.85757 | 10190 ft | 278 kts | 48° |
| 2026-04-25 20:44 | 55.53741 | 11.88509 | 9980 ft | 263 kts | 48° |
| 2026-04-25 20:45 | 55.54745 | 11.91131 | 9771 ft | 253 kts | 49° |
| 2026-04-25 20:45 | 55.55720 | 11.93682 | 9603 ft | 249 kts | 48° |
| 2026-04-25 20:45 | 55.56377 | 11.95397 | 9445 ft | 250 kts | 48° |
| 2026-04-25 20:45 | 55.57233 | 11.98795 | 9100 ft | 265 kts | 74° |
| 2026-04-25 20:46 | 55.57098 | 12.02095 | 8674 ft | 278 kts | 102° |
| 2026-04-25 20:46 | 55.56164 | 12.05136 | 8238 ft | 285 kts | 122° |
| 2026-04-25 20:46 | 55.54930 | 12.07892 | 7709 ft | 289 kts | 124° |
| 2026-04-25 20:46 | 55.53662 | 12.10648 | 7164 ft | 287 kts | 125° |
| 2026-04-25 20:47 | 55.52431 | 12.13315 | 6831 ft | 274 kts | 125° |
| 2026-04-25 20:47 | 55.51262 | 12.15833 | 6500 ft | 264 kts | 125° |
| 2026-04-25 20:47 | 55.50115 | 12.18299 | 6145 ft | 255 kts | 125° |
| 2026-04-25 20:47 | 55.49020 | 12.20636 | 5802 ft | 237 kts | 125° |
| 2026-04-25 20:48 | 55.48010 | 12.22749 | 5486 ft | 215 kts | 125° |
| 2026-04-25 20:48 | 55.47068 | 12.24697 | 5114 ft | 207 kts | 124° |
| 2026-04-25 20:48 | 55.46135 | 12.26616 | 4688 ft | 206 kts | 124° |
| 2026-04-25 20:48 | 55.45197 | 12.28527 | 4226 ft | 206 kts | 125° |
| 2026-04-25 20:49 | 55.44263 | 12.30445 | 3744 ft | 205 kts | 121° |
| 2026-04-25 20:49 | 55.43761 | 12.32640 | 3264 ft | 187 kts | 82° |
| 2026-04-25 20:49 | 55.43962 | 12.34792 | 3040 ft | 174 kts | 66° |
| 2026-04-25 20:49 | 55.44321 | 12.36768 | 3018 ft | 162 kts | 56° |
| 2026-04-25 20:50 | 55.44981 | 12.38339 | 3049 ft | 161 kts | 38° |
| 2026-04-25 20:50 | 55.45813 | 12.39711 | 3043 ft | 166 kts | 35° |
| 2026-04-25 20:50 | 55.46401 | 12.40626 | 3036 ft | 166 kts | 35° |
| 2026-04-25 20:50 | 55.47250 | 12.41935 | 3009 ft | 153 kts | 33° |
| 2026-04-25 20:51 | 55.48035 | 12.43145 | 2940 ft | 151 kts | 34° |
| 2026-04-25 20:51 | 55.48816 | 12.44347 | 2747 ft | 147 kts | 33° |
| 2026-04-25 20:51 | 55.49575 | 12.45513 | 2569 ft | 143 kts | 33° |
| 2026-04-25 20:51 | 55.50283 | 12.46605 | 2406 ft | 134 kts | 32° |
| 2026-04-25 20:52 | 55.50989 | 12.47681 | 2216 ft | 135 kts | 32° |
| 2026-04-25 20:52 | 55.51468 | 12.48415 | 2092 ft | 135 kts | 32° |
| 2026-04-25 20:52 | 55.52391 | 12.49835 | 1861 ft | 132 kts | 32° |
| 2026-04-25 20:52 | 55.53081 | 12.50898 | 1691 ft | 129 kts | 31° |
| 2026-04-25 20:53 | 55.53763 | 12.51941 | 1509 ft | 132 kts | 31° |
| 2026-04-25 20:53 | 55.54451 | 12.52998 | 1321 ft | 132 kts | 31° |
| 2026-04-25 20:53 | 55.55149 | 12.54079 | 1132 ft | 131 kts | 32° |
| 2026-04-25 20:53 | 55.55843 | 12.55146 | 967 ft | 136 kts | 34° |
| 2026-04-25 20:54 | 55.56536 | 12.56209 | 812 ft | 132 kts | 33° |
| 2026-04-25 20:54 | 55.57245 | 12.57274 | 580 ft | 135 kts | 34° |
| 2026-04-25 20:54 | 55.57944 | 12.58376 | 354 ft | 129 kts | 36° |
| 2026-04-25 20:54 | 55.58614 | 12.59406 | 216 ft | 128 kts | 34° |
| 2026-04-25 20:55 | 55.59290 | 12.60452 | 53 ft | 127 kts | 34° |
| 2026-04-25 20:55 | 55.59898 | 12.61372 | 20 ft | 105 kts | 38° |
| 2026-04-25 20:55 | 55.60369 | 12.62124 | 19 ft | 72 kts | 41° |
| 2026-04-25 20:55 | 55.60654 | 12.62570 | 22 ft | 35 kts | 41° |
| 2026-04-25 20:56 | 55.60810 | 12.62772 | 22 ft | 23 kts | 27° |
| 2026-04-25 20:56 | 55.60907 | 12.62841 | 23 ft | 14 kts | 15° |
| 2026-04-25 20:56 | 55.61004 | 12.62877 | 20 ft | 11 kts | 11° |
| 2026-04-25 20:56 | 55.61021 | 12.62883 | 20 ft | 0 kts | 11° |
| 2026-04-25 20:57 | 55.61029 | 12.62886 | 19 ft | 4 kts | 11° |
| 2026-04-25 20:57 | 55.61074 | 12.62901 | 19 ft | 9 kts | 11° |
| 2026-04-25 20:57 | 55.61142 | 12.62955 | 21 ft | 12 kts | 34° |
| 2026-04-25 20:58 | 55.61215 | 12.63059 | 21 ft | 15 kts | 39° |
| 2026-04-25 20:58 | 55.61299 | 12.63191 | 20 ft | 17 kts | 41° |
| 2026-04-25 20:58 | 55.61397 | 12.63343 | 21 ft | 20 kts | 40° |
| 2026-04-25 20:58 | 55.61510 | 12.63509 | 21 ft | 22 kts | 39° |
| 2026-04-25 20:59 | 55.61628 | 12.63697 | 19 ft | 23 kts | 42° |
| 2026-04-25 20:59 | 55.61759 | 12.63893 | 21 ft | 25 kts | 44° |
| 2026-04-25 20:59 | 55.61877 | 12.64076 | 19 ft | 23 kts | 27° |
| 2026-04-25 20:59 | 55.62019 | 12.64193 | 21 ft | 20 kts | 25° |
| 2026-04-25 21:00 | 55.62128 | 12.64285 | 20 ft | 14 kts | 25° |
| 2026-04-25 21:00 | 55.62145 | 12.64299 | 19 ft | 0 kts | 25° |
| 2026-04-25 21:01 | 55.62148 | 12.64302 | 19 ft | 2 kts | 25° |
| 2026-04-25 21:01 | 55.62173 | 12.64323 | 21 ft | 6 kts | 25° |
| 2026-04-25 21:02 | 55.62227 | 12.64364 | 19 ft | 9 kts | 11° |
| 2026-04-25 21:02 | 55.62264 | 12.64315 | 18 ft | 8 kts | 304° |
| 2026-04-25 21:02 | 55.62303 | 12.64215 | 17 ft | 12 kts | 304° |
| 2026-04-25 21:02 | 55.62356 | 12.64078 | 18 ft | 14 kts | 305° |
| 2026-04-25 21:03 | 55.62415 | 12.63929 | 18 ft | 14 kts | 302° |
| 2026-04-25 21:03 | 55.62474 | 12.63814 | 19 ft | 9 kts | 323° |
| 2026-04-25 21:03 | 55.62491 | 12.63790 | 19 ft | 8 kts | 304° |
| 2026-04-25 21:03 | 55.62531 | 12.63630 | 19 ft | 19 kts | 299° |
| 2026-04-25 21:04 | 55.62610 | 12.63511 | 19 ft | 3 kts | 344° |
| 2026-04-25 21:04 | 55.62612 | 12.63510 | 19 ft | 0 kts | 345° |
| 2026-04-25 21:04 | 55.62618 | 12.63507 | 19 ft | 3 kts | 345° |
| 2026-04-25 21:05 | 55.62647 | 12.63491 | 21 ft | 6 kts | 335° |
| 2026-04-25 21:05 | 55.62681 | 12.63436 | 19 ft | 8 kts | 306° |
| 2026-04-25 21:05 | 55.62719 | 12.63341 | 18 ft | 11 kts | 304° |
| 2026-04-25 21:05 | 55.62736 | 12.63296 | 18 ft | 0 kts | 305° |
| 2026-04-25 21:06 | 55.62739 | 12.63296 | 18 ft | 1 kts | 345° |
| 2026-04-25 21:06 | 55.62775 | 12.63303 | 19 ft | 8 kts | 359° |
| 2026-04-25 21:06 | 55.62829 | 12.63300 | 19 ft | 0 kts | 356° |